Terminal Aerodrome Forecast
Issued by NWS Cleveland, OH

Home | Current Version | Previous Version | Text Only | Print | Product List | Glossary On
Versions: 1 2 3 4 5 6 7 8 9 10 11 12 13
000
FTUS41 KCLE 030338 AAA
TAFMFD
TAF AMD
KMFD 030338Z 0304/0324 20012G20KT P6SM BKN100
      TEMPO 0307/0310 3SM SHRA OVC035
     FM031400 26010KT P6SM BKN035
      TEMPO 0314/0317 BKN025
     FM031900 28010KT P6SM SCT035=

USA.gov is the U.S. government's official web portal to all federal, state and local government web resources and services.